EZS83LE LFSB-LIPZ
Flight info
| Callsign | EZS83LE |
|---|---|
| Flight time | N/A |
| Altitude | 35000 |
| Route | OLBEN Z50 RESIA DCT ADOSA L612 ALBET |
| Aircraft | A20N/M-SDE2E3FGHIJ1RWXYZ/LB1 |
Departure
| Time | N/A |
|---|---|
| Airport | EuroAirport Basel–Mulhouse–Freiburg (LFSB) |
Arrival
| Time | 2026-05-04 01:58 |
|---|---|
| Airport | Venice Marco Polo Airport (LIPZ) |
| Time | Latitude | Longitude | Altitude | Speed | Heading |
|---|---|---|---|---|---|
| 2026-05-04 01:15 | 47.06644 | 8.36703 | 26032 ft | 418 kts | 105° |
| 2026-05-04 01:15 | 47.05960 | 8.40863 | 26531 ft | 421 kts | 105° |
| 2026-05-04 01:16 | 47.05274 | 8.45031 | 27016 ft | 424 kts | 105° |
| 2026-05-04 01:16 | 47.04562 | 8.49205 | 27465 ft | 426 kts | 108° |
| 2026-05-04 01:16 | 47.03628 | 8.53331 | 27921 ft | 427 kts | 113° |
| 2026-05-04 01:16 | 47.02448 | 8.57303 | 28374 ft | 428 kts | 118° |
| 2026-05-04 01:17 | 47.01072 | 8.61192 | 28809 ft | 430 kts | 120° |
| 2026-05-04 01:17 | 46.99677 | 8.65017 | 29301 ft | 430 kts | 121° |
| 2026-05-04 01:17 | 46.98267 | 8.68872 | 29878 ft | 429 kts | 121° |
| 2026-05-04 01:17 | 46.96864 | 8.72720 | 30445 ft | 427 kts | 121° |
| 2026-05-04 01:18 | 46.95476 | 8.76535 | 30985 ft | 426 kts | 121° |
| 2026-05-04 01:18 | 46.94082 | 8.80367 | 31494 ft | 425 kts | 121° |
| 2026-05-04 01:18 | 46.92709 | 8.84131 | 31956 ft | 425 kts | 121° |
| 2026-05-04 01:18 | 46.91307 | 8.87968 | 32423 ft | 425 kts | 121° |
| 2026-05-04 01:19 | 46.89910 | 8.91786 | 32880 ft | 424 kts | 121° |
| 2026-05-04 01:19 | 46.88533 | 8.95545 | 33315 ft | 423 kts | 121° |
| 2026-05-04 01:19 | 46.87149 | 8.99310 | 33686 ft | 424 kts | 121° |
| 2026-05-04 01:19 | 46.85744 | 9.03126 | 33985 ft | 426 kts | 121° |
| 2026-05-04 01:20 | 46.84348 | 9.06916 | 34282 ft | 428 kts | 121° |
| 2026-05-04 01:20 | 46.82942 | 9.10730 | 34607 ft | 429 kts | 121° |
| 2026-05-04 01:20 | 46.81524 | 9.14576 | 34898 ft | 430 kts | 121° |
| 2026-05-04 01:20 | 46.80112 | 9.18392 | 35108 ft | 431 kts | 121° |
| 2026-05-04 01:21 | 46.78690 | 9.22236 | 35118 ft | 432 kts | 121° |
| 2026-05-04 01:21 | 46.75838 | 9.29925 | 35128 ft | 432 kts | 121° |
| 2026-05-04 01:22 | 46.72983 | 9.37605 | 35128 ft | 432 kts | 121° |
| 2026-05-04 01:22 | 46.70129 | 9.45263 | 35135 ft | 433 kts | 121° |
| 2026-05-04 01:23 | 46.67270 | 9.52912 | 35130 ft | 433 kts | 121° |
| 2026-05-04 01:23 | 46.64381 | 9.60619 | 35138 ft | 432 kts | 121° |
| 2026-05-04 01:24 | 46.61517 | 9.68238 | 35149 ft | 432 kts | 121° |
| 2026-05-04 01:24 | 46.58624 | 9.75909 | 35143 ft | 432 kts | 122° |
| 2026-05-04 01:25 | 46.55741 | 9.83525 | 35130 ft | 432 kts | 122° |
| 2026-05-04 01:25 | 46.52836 | 9.91175 | 35118 ft | 432 kts | 121° |
| 2026-05-04 01:26 | 46.49813 | 9.98664 | 35127 ft | 430 kts | 127° |
| 2026-05-04 01:26 | 46.46159 | 10.05483 | 35152 ft | 427 kts | 135° |
| 2026-05-04 01:27 | 46.41908 | 10.11433 | 35154 ft | 424 kts | 143° |
| 2026-05-04 01:27 | 46.37369 | 10.16855 | 35144 ft | 424 kts | 143° |
| 2026-05-04 01:28 | 46.32843 | 10.22248 | 35145 ft | 424 kts | 143° |
| 2026-05-04 01:28 | 46.28308 | 10.27652 | 35134 ft | 424 kts | 143° |
| 2026-05-04 01:29 | 46.23756 | 10.33070 | 35130 ft | 424 kts | 143° |
| 2026-05-04 01:29 | 46.19229 | 10.38449 | 35134 ft | 424 kts | 143° |
| 2026-05-04 01:30 | 46.14674 | 10.43847 | 35139 ft | 425 kts | 143° |
| 2026-05-04 01:30 | 46.10107 | 10.49251 | 35145 ft | 425 kts | 143° |
| 2026-05-04 01:31 | 46.05536 | 10.54645 | 34520 ft | 429 kts | 143° |
| 2026-05-04 01:31 | 46.03238 | 10.57349 | 33517 ft | 437 kts | 142° |
| 2026-05-04 01:31 | 46.00887 | 10.60115 | 32688 ft | 440 kts | 142° |
| 2026-05-04 01:31 | 45.98518 | 10.62902 | 31943 ft | 441 kts | 142° |
| 2026-05-04 01:32 | 45.96142 | 10.65695 | 31179 ft | 442 kts | 143° |
| 2026-05-04 01:32 | 45.93740 | 10.68515 | 30376 ft | 444 kts | 143° |
| 2026-05-04 01:32 | 45.91333 | 10.71334 | 29577 ft | 446 kts | 143° |
| 2026-05-04 01:32 | 45.88966 | 10.74103 | 28786 ft | 447 kts | 143° |
| 2026-05-04 01:33 | 45.86539 | 10.76938 | 28128 ft | 444 kts | 143° |
| 2026-05-04 01:33 | 45.84158 | 10.79719 | 27601 ft | 439 kts | 143° |
| 2026-05-04 01:33 | 45.81834 | 10.82430 | 27048 ft | 435 kts | 143° |
| 2026-05-04 01:33 | 45.79495 | 10.85158 | 26460 ft | 432 kts | 143° |
| 2026-05-04 01:34 | 45.77190 | 10.87842 | 25890 ft | 428 kts | 143° |
| 2026-05-04 01:34 | 45.74879 | 10.90533 | 25320 ft | 425 kts | 143° |
| 2026-05-04 01:34 | 45.72599 | 10.93182 | 24770 ft | 422 kts | 143° |
| 2026-05-04 01:34 | 45.70332 | 10.95814 | 24219 ft | 419 kts | 143° |
| 2026-05-04 01:35 | 45.68090 | 10.98408 | 23676 ft | 416 kts | 142° |
| 2026-05-04 01:35 | 45.65871 | 11.01038 | 23119 ft | 414 kts | 139° |
| 2026-05-04 01:35 | 45.63905 | 11.04009 | 22599 ft | 412 kts | 130° |
| 2026-05-04 01:35 | 45.62251 | 11.07333 | 22113 ft | 409 kts | 124° |
| 2026-05-04 01:36 | 45.60739 | 11.10730 | 21626 ft | 405 kts | 123° |
| 2026-05-04 01:36 | 45.59245 | 11.14128 | 21142 ft | 401 kts | 123° |
| 2026-05-04 01:36 | 45.57764 | 11.17463 | 20677 ft | 397 kts | 123° |
| 2026-05-04 01:36 | 45.56295 | 11.20746 | 20195 ft | 394 kts | 123° |
| 2026-05-04 01:37 | 45.54822 | 11.24022 | 19716 ft | 390 kts | 123° |
| 2026-05-04 01:37 | 45.53368 | 11.27253 | 19238 ft | 386 kts | 123° |
| 2026-05-04 01:37 | 45.51936 | 11.30432 | 18765 ft | 383 kts | 123° |
| 2026-05-04 01:37 | 45.50502 | 11.33607 | 18300 ft | 379 kts | 123° |
| 2026-05-04 01:38 | 45.49098 | 11.36714 | 17830 ft | 376 kts | 123° |
| 2026-05-04 01:38 | 45.47687 | 11.39838 | 17330 ft | 373 kts | 124° |
| 2026-05-04 01:38 | 45.46303 | 11.42892 | 16839 ft | 370 kts | 124° |
| 2026-05-04 01:38 | 45.44893 | 11.46001 | 16334 ft | 368 kts | 124° |
| 2026-05-04 01:39 | 45.43499 | 11.49048 | 15861 ft | 364 kts | 125° |
| 2026-05-04 01:39 | 45.42015 | 11.51883 | 15516 ft | 357 kts | 130° |
| 2026-05-04 01:39 | 45.40395 | 11.54538 | 15188 ft | 349 kts | 133° |
| 2026-05-04 01:39 | 45.38789 | 11.57079 | 14872 ft | 342 kts | 133° |
| 2026-05-04 01:40 | 45.37192 | 11.59591 | 14517 ft | 337 kts | 133° |
| 2026-05-04 01:40 | 45.35643 | 11.62052 | 14132 ft | 333 kts | 131° |
| 2026-05-04 01:40 | 45.34513 | 11.64887 | 13638 ft | 337 kts | 106° |
| 2026-05-04 01:40 | 45.34320 | 11.68220 | 13208 ft | 336 kts | 87° |
| 2026-05-04 01:41 | 45.34513 | 11.71501 | 12826 ft | 333 kts | 86° |
| 2026-05-04 01:41 | 45.34701 | 11.74735 | 12397 ft | 331 kts | 86° |
| 2026-05-04 01:41 | 45.34871 | 11.77996 | 12003 ft | 327 kts | 87° |
| 2026-05-04 01:41 | 45.35022 | 11.81181 | 11720 ft | 320 kts | 89° |
| 2026-05-04 01:42 | 45.34757 | 11.84257 | 11402 ft | 312 kts | 114° |
| 2026-05-04 01:42 | 45.33567 | 11.86735 | 11082 ft | 303 kts | 135° |
| 2026-05-04 01:42 | 45.32108 | 11.88889 | 10784 ft | 297 kts | 136° |
| 2026-05-04 01:42 | 45.30533 | 11.90679 | 10519 ft | 287 kts | 158° |
| 2026-05-04 01:43 | 45.28617 | 11.91106 | 10238 ft | 276 kts | 191° |
| 2026-05-04 01:43 | 45.26927 | 11.90002 | 9946 ft | 268 kts | 222° |
| 2026-05-04 01:43 | 45.25637 | 11.88146 | 9675 ft | 263 kts | 226° |
| 2026-05-04 01:43 | 45.24368 | 11.86298 | 9419 ft | 258 kts | 225° |
| 2026-05-04 01:44 | 45.23084 | 11.84544 | 9184 ft | 253 kts | 223° |
| 2026-05-04 01:44 | 45.21797 | 11.82863 | 9104 ft | 253 kts | 222° |
| 2026-05-04 01:44 | 45.20482 | 11.81184 | 9070 ft | 255 kts | 222° |
| 2026-05-04 01:44 | 45.19149 | 11.79502 | 9056 ft | 255 kts | 222° |
| 2026-05-04 01:45 | 45.17834 | 11.77850 | 9054 ft | 255 kts | 222° |
| 2026-05-04 01:45 | 45.16513 | 11.76194 | 9057 ft | 254 kts | 222° |
| 2026-05-04 01:45 | 45.13858 | 11.72870 | 9055 ft | 254 kts | 222° |
| 2026-05-04 01:46 | 45.12519 | 11.71271 | 9041 ft | 250 kts | 213° |
| 2026-05-04 01:46 | 45.10915 | 11.70599 | 9012 ft | 238 kts | 175° |
| 2026-05-04 01:46 | 45.09381 | 11.71451 | 9038 ft | 242 kts | 141° |
| 2026-05-04 01:46 | 45.08245 | 11.73212 | 9060 ft | 243 kts | 131° |
| 2026-05-04 01:47 | 45.07172 | 11.75048 | 9049 ft | 246 kts | 131° |
| 2026-05-04 01:47 | 45.06021 | 11.77004 | 9069 ft | 272 kts | 131° |
| 2026-05-04 01:47 | 45.04768 | 11.79120 | 9071 ft | 284 kts | 131° |
| 2026-05-04 01:47 | 45.03494 | 11.81270 | 9078 ft | 285 kts | 131° |
| 2026-05-04 01:48 | 45.02218 | 11.83421 | 9075 ft | 286 kts | 131° |
| 2026-05-04 01:48 | 45.01128 | 11.85732 | 9064 ft | 288 kts | 112° |
| 2026-05-04 01:48 | 45.00755 | 11.88491 | 9066 ft | 290 kts | 94° |
| 2026-05-04 01:48 | 45.00834 | 11.91340 | 9060 ft | 292 kts | 77° |
| 2026-05-04 01:49 | 45.01672 | 11.93931 | 9059 ft | 292 kts | 55° |
| 2026-05-04 01:49 | 45.02951 | 11.96195 | 9060 ft | 293 kts | 49° |
| 2026-05-04 01:49 | 45.04290 | 11.98354 | 9064 ft | 293 kts | 49° |
| 2026-05-04 01:49 | 45.05640 | 12.00497 | 9061 ft | 293 kts | 48° |
| 2026-05-04 01:50 | 45.06989 | 12.02632 | 9059 ft | 293 kts | 48° |
| 2026-05-04 01:50 | 45.08482 | 12.04611 | 9044 ft | 293 kts | 31° |
| 2026-05-04 01:50 | 45.10314 | 12.05807 | 9050 ft | 292 kts | 19° |
| 2026-05-04 01:50 | 45.12254 | 12.06750 | 9041 ft | 292 kts | 14° |
| 2026-05-04 01:51 | 45.14210 | 12.07105 | 9028 ft | 276 kts | 0° |
| 2026-05-04 01:51 | 45.16061 | 12.07115 | 9023 ft | 260 kts | 358° |
| 2026-05-04 01:51 | 45.17842 | 12.07071 | 9017 ft | 248 kts | 357° |
| 2026-05-04 01:51 | 45.19568 | 12.07018 | 9018 ft | 248 kts | 357° |
| 2026-05-04 01:52 | 45.21282 | 12.06942 | 9002 ft | 248 kts | 352° |
| 2026-05-04 01:52 | 45.22928 | 12.06249 | 8591 ft | 251 kts | 331° |
| 2026-05-04 01:52 | 45.24484 | 12.05074 | 8113 ft | 257 kts | 339° |
| 2026-05-04 01:52 | 45.26272 | 12.04770 | 7632 ft | 264 kts | 9° |
| 2026-05-04 01:53 | 45.27952 | 12.05726 | 7165 ft | 268 kts | 37° |
| 2026-05-04 01:53 | 45.29326 | 12.07535 | 6659 ft | 272 kts | 45° |
| 2026-05-04 01:53 | 45.30657 | 12.09445 | 6047 ft | 271 kts | 45° |
| 2026-05-04 01:53 | 45.31981 | 12.11282 | 5429 ft | 269 kts | 44° |
| 2026-05-04 01:54 | 45.33341 | 12.13094 | 4803 ft | 266 kts | 43° |
| 2026-05-04 01:54 | 45.34696 | 12.14852 | 4176 ft | 264 kts | 42° |
| 2026-05-04 01:54 | 45.36033 | 12.16568 | 3575 ft | 260 kts | 42° |
| 2026-05-04 01:54 | 45.37357 | 12.18263 | 3142 ft | 250 kts | 42° |
| 2026-05-04 01:55 | 45.38608 | 12.19869 | 2813 ft | 239 kts | 42° |
| 2026-05-04 01:55 | 45.39823 | 12.21431 | 2498 ft | 230 kts | 42° |
| 2026-05-04 01:55 | 45.40978 | 12.22915 | 2195 ft | 216 kts | 41° |
| 2026-05-04 01:55 | 45.42057 | 12.24305 | 1917 ft | 206 kts | 41° |
| 2026-05-04 01:56 | 45.43082 | 12.25625 | 1737 ft | 190 kts | 41° |
| 2026-05-04 01:56 | 45.44043 | 12.26861 | 1455 ft | 181 kts | 41° |
| 2026-05-04 01:56 | 45.44956 | 12.28035 | 1191 ft | 173 kts | 41° |
| 2026-05-04 01:56 | 45.45830 | 12.29159 | 971 ft | 161 kts | 41° |
| 2026-05-04 01:57 | 45.46631 | 12.30188 | 759 ft | 148 kts | 41° |
| 2026-05-04 01:57 | 45.47363 | 12.31130 | 552 ft | 135 kts | 42° |
| 2026-05-04 01:57 | 45.48044 | 12.32006 | 388 ft | 132 kts | 42° |
| 2026-05-04 01:57 | 45.48728 | 12.32892 | 208 ft | 131 kts | 42° |
| 2026-05-04 01:58 | 45.49398 | 12.33767 | 57 ft | 130 kts | 40° |
| 2026-05-04 01:58 | 45.50041 | 12.34584 | 13 ft | 98 kts | 41° |
| 2026-05-04 01:58 | 45.50320 | 12.34950 | 13 ft | 15 kts | 34° |
| 2026-05-04 01:58 | 45.50466 | 12.35056 | 12 ft | 32 kts | 14° |
| 2026-05-04 01:59 | 45.50618 | 12.34969 | 12 ft | 24 kts | 261° |
| 2026-05-04 01:59 | 45.50603 | 12.34727 | 12 ft | 24 kts | 269° |
| 2026-05-04 01:59 | 45.50597 | 12.34493 | 12 ft | 23 kts | 265° |
| 2026-05-04 01:59 | 45.50552 | 12.34298 | 12 ft | 19 kts | 267° |
| 2026-05-04 02:00 | 45.50549 | 12.34205 | 12 ft | 0 kts | 268° |
| 2026-05-04 02:00 | 45.50549 | 12.34204 | 12 ft | 0 kts | 268° |